Hovedside
METAR-TAF:

METAR-TAF

Lufthavner :

Bornholms lufthavn

Rønne, Danmark

breddegrad: 55-04N, lengdegrad: 014-45E, høyde over havet: 16 m

Gjeldene værobservasjon

Denne rapporten ble laget for 16 minutter siden, klokken 20:20 UTC
Vind 8 kt fra Øst
Temperatur 6°C
Luftfuktighet 87%
Trykk 1016 hPa
Sikt 10 km eller mer

METAR: EKRN 142020Z AUTO 10008KT 9999 BKN015/// 06/04 Q1016

Tid: 21:36 (20:36 UTC)

Varsel

Denne rapporten ble laget for 3 timer og 19 minutter siden, klokken 17:17 UTC
Varsel gyldig fra 14. klokken 18 UTC til 14. klokken 23 UTC
Vind 10 kt fra Øst
Sikt 10 km eller mer
Brutte skyer i en høyde av 1800 ft

TAF: EKRN 141717Z 1418/1423 10010KT 9999 BKN018

Værobservasjoner og værvarsel for over 4000 flyplasser (METAR- og TAF-rapporter).

Tilgjengelige stasjoner er representert av de røde og gule prikkene på kartet.

Hold musepekeren over prikken for å se navnet på stasjonen.

Klikk så for å se værobservasjoner og -varsler.

For å forandre kartet kan du klikke på den grønne knappen med svart kryss for å zoome inn, på den grønne knappen med strek for å zoome ut, eller på de grønne pilene for å se tilstøtende kart.


METAR-TAF: